METAR Data
IDs: Format: Raw Decoded Include TAF

Data at: 2041 UTC 13 Aug 2020

KFFZ 131954Z 29009KT 10SM CLR 43/11 A2982 RMK AO2 SLP066 T04330106
KFFZ 131854Z 24006KT 10SM CLR 42/12 A2984 RMK AO2 SLP073 T04220122
KFFZ 131754Z 00000KT 10SM CLR 41/13 A2986 RMK AO2 SLP080 T04110128 10411 20311 58003
KFFZ 131654Z 00000KT 10SM CLR 38/13 A2987 RMK AO2 SLP085 T03830133
KFFZ 131554Z 00000KT 10SM CLR 36/13 A2987 RMK AO2 SLP085 T03610128
KFFZ 131454Z 06004KT 10SM CLR 36/13 A2987 RMK AO2 SLP083 T03560128 51015
KFFZ 131354Z 00000KT 10SM CLR 33/14 A2985 RMK AO2 SLP080 T03280139
KFFZ 131254Z 06003KT 10SM CLR 32/13 A2983 RMK AO2 SLP072 T03220128
KFFZ 131154Z AUTO 02005KT 10SM CLR 33/12 A2982 RMK AO2 SLP067 T03330122 10361 20317 53001
KFFZ 131054Z AUTO 01003KT 10SM CLR 32/13 A2981 RMK AO2 SLP065 T03220128
KFFZ 130954Z AUTO 08004KT 10SM CLR 33/14 A2981 RMK AO2 SLP065 T03330139
KFFZ 130854Z AUTO 00000KT 10SM CLR 34/15 A2982 RMK AO2 SLP066 T03390150 50001
KFFZ 130754Z AUTO 10003KT 10SM CLR 34/16 A2982 RMK AO2 SLP068 T03390156
KFFZ 130654Z AUTO 00000KT 10SM CLR 34/15 A2982 RMK AO2 SLP068 T03440150 404280306
KFFZ 130554Z AUTO 00000KT 10SM CLR 36/16 A2981 RMK AO2 SLP065 T03610156 10422 20356 50008
KFFZ 130454Z AUTO 13003KT 10SM CLR 36/14 A2981 RMK AO2 SLP066 T03610144
KFFZ 130354Z AUTO 25004KT 10SM CLR 39/13 A2980 RMK AO2 SLP062 T03890128
KFFZ 130254Z 25006KT 10SM CLR 39/13 A2978 RMK AO2 SLP056 T03940128 53005
KFFZ 130154Z 26006KT 10SM CLR 41/12 A2977 RMK AO2 SLP051 T04110117
KFFZ 130054Z 26007G16KT 10SM CLR 42/12 A2976 RMK AO2 SLP048 T04170117
KFFZ 122354Z 25009KT 10SM CLR 42/12 A2977 RMK AO2 SLP051 T04220122 10428 20372 56020
KFFZ 122254Z 27008KT 10SM CLR 43/13 A2978 RMK AO2 SLP054 T04280128
KFFZ 122154Z 24009G15KT 10SM CLR 42/13 A2980 RMK AO2 SLP063 T04170133
KFFZ 122054Z VRB05KT 10SM CLR 41/14 A2983 RMK AO2 SLP072 T04110139 58024
KFFZ 121954Z VRB06KT 10SM CLR 41/15 A2986 RMK AO2 SLP081 T04110150
KFFZ 121854Z 30008KT 10SM CLR 39/16 A2988 RMK AO2 SLP090 T03890156
KFFZ 121754Z 19005KT 10SM CLR 37/16 A2991 RMK AO2 SLP099 T03720156 10372 20306 58001
KFFZ 121654Z 14004KT 10SM CLR 36/16 A2992 RMK AO2 SLP104 T03560161
KFFZ 121554Z 11003KT 10SM CLR 34/16 A2992 RMK AO2 SLP102 T03390156
KFFZ 121454Z VRB03KT 10SM CLR 32/16 A2991 RMK AO2 SLP099 T03220156 51014
KFFZ 121354Z 10003KT 10SM CLR 31/16 A2990 RMK AO2 SLP096 T03110161
KFFZ 121254Z 15004KT 10SM CLR 31/16 A2989 RMK AO2 SLP092 T03060156
KFFZ 121154Z 06004KT 10SM CLR 31/15 A2987 RMK AO2 SLP084 T03110150 10339 20311 53003
KFFZ 121054Z 35004KT 10SM CLR 32/15 A2986 RMK AO2 SLP082 T03220150
KFFZ 120954Z 01005KT 10SM CLR 33/15 A2985 RMK AO2 SLP080 T03280150
KFFZ 120854Z 03005KT 10SM CLR 33/15 A2986 RMK AO2 SLP081 T03330150 58001